sensor_id;sensor_type;location;lat;lon;timestamp;temperature;humidity
16521;DHT22;8373;48.110;11.522;2022-09-19T04:03:30;10.40;86.30
16521;DHT22;8373;48.110;11.522;2022-09-19T04:05:57;10.40;86.00
16521;DHT22;8373;48.110;11.522;2022-09-19T04:08:24;10.40;85.80
16521;DHT22;8373;48.110;11.522;2022-09-19T04:10:51;10.40;85.70
16521;DHT22;8373;48.110;11.522;2022-09-19T04:13:18;10.40;85.70
16521;DHT22;8373;48.110;11.522;2022-09-19T04:15:46;10.50;86.00
16521;DHT22;8373;48.110;11.522;2022-09-19T04:18:13;10.40;85.60
16521;DHT22;8373;48.110;11.522;2022-09-19T04:20:42;10.40;85.30
16521;DHT22;8373;48.110;11.522;2022-09-19T04:23:10;10.30;85.10
16521;DHT22;8373;48.110;11.522;2022-09-19T04:25:42;10.20;85.60
16521;DHT22;8373;48.110;11.522;2022-09-19T04:28:10;10.20;86.10
16521;DHT22;8373;48.110;11.522;2022-09-19T04:30:38;10.10;85.70
16521;DHT22;8373;48.110;11.522;2022-09-19T04:33:13;10.20;86.20
16521;DHT22;8373;48.110;11.522;2022-09-19T04:35:41;10.20;86.10
16521;DHT22;8373;48.110;11.522;2022-09-19T04:38:10;10.20;85.60
16521;DHT22;8373;48.110;11.522;2022-09-19T04:40:39;10.30;85.80
16521;DHT22;8373;48.110;11.522;2022-09-19T04:43:06;10.10;85.40
16521;DHT22;8373;48.110;11.522;2022-09-19T04:45:34;10.10;85.60
16521;DHT22;8373;48.110;11.522;2022-09-19T04:48:02;10.10;85.60
16521;DHT22;8373;48.110;11.522;2022-09-19T04:50:32;10.10;85.70
16521;DHT22;8373;48.110;11.522;2022-09-19T04:53:00;10.10;85.70
16521;DHT22;8373;48.110;11.522;2022-09-19T04:55:28;10.00;85.30
16521;DHT22;8373;48.110;11.522;2022-09-19T04:57:56;10.00;85.60
16521;DHT22;8373;48.110;11.522;2022-09-19T05:00:24;10.10;85.90
16521;DHT22;8373;48.110;11.522;2022-09-19T05:03:04;10.10;85.20
16521;DHT22;8373;48.110;11.522;2022-09-19T05:05:34;9.90;85.60
16521;DHT22;8373;48.110;11.522;2022-09-19T05:08:04;9.90;86.00
16521;DHT22;8373;48.110;11.522;2022-09-19T05:10:31;9.90;86.00
16521;DHT22;8373;48.110;11.522;2022-09-19T05:12:59;9.80;86.00
16521;DHT22;8373;48.110;11.522;2022-09-19T05:15:26;9.80;86.40
16521;DHT22;8373;48.110;11.522;2022-09-19T05:17:53;9.80;86.10
16521;DHT22;8373;48.110;11.522;2022-09-19T05:20:21;9.70;86.00
16521;DHT22;8373;48.110;11.522;2022-09-19T05:22:53;9.80;86.50
16521;DHT22;8373;48.110;11.522;2022-09-19T05:25:26;9.90;86.50
16521;DHT22;8373;48.110;11.522;2022-09-19T05:27:56;9.80;86.30
16521;DHT22;8373;48.110;11.522;2022-09-19T05:30:23;9.70;85.90
16521;DHT22;8373;48.110;11.522;2022-09-19T05:32:52;9.70;86.20
16521;DHT22;8373;48.110;11.522;2022-09-19T05:35:20;9.80;86.90
16521;DHT22;8373;48.110;11.522;2022-09-19T05:37:47;10.00;85.60
16521;DHT22;8373;48.110;11.522;2022-09-19T05:40:14;10.00;84.70
16521;DHT22;8373;48.110;11.522;2022-09-19T05:42:43;10.00;84.60
16521;DHT22;8373;48.110;11.522;2022-09-19T05:45:13;10.00;84.30
16521;DHT22;8373;48.110;11.522;2022-09-19T05:47:40;10.00;84.00
16521;DHT22;8373;48.110;11.522;2022-09-19T05:50:10;10.00;84.70
16521;DHT22;8373;48.110;11.522;2022-09-19T05:52:37;10.00;84.90
16521;DHT22;8373;48.110;11.522;2022-09-19T05:55:22;10.00;85.00
16521;DHT22;8373;48.110;11.522;2022-09-19T05:57:52;10.00;84.40
16521;DHT22;8373;48.110;11.522;2022-09-19T06:00:19;10.00;84.80
16521;DHT22;8373;48.110;11.522;2022-09-19T06:02:53;10.00;85.20
16521;DHT22;8373;48.110;11.522;2022-09-19T06:05:21;10.10;85.20
16521;DHT22;8373;48.110;11.522;2022-09-19T06:07:48;10.00;84.80
16521;DHT22;8373;48.110;11.522;2022-09-19T06:10:16;10.00;84.70
16521;DHT22;8373;48.110;11.522;2022-09-19T06:12:43;10.00;84.90
16521;DHT22;8373;48.110;11.522;2022-09-19T06:15:11;9.90;86.10
16521;DHT22;8373;48.110;11.522;2022-09-19T06:17:38;9.90;86.10
16521;DHT22;8373;48.110;11.522;2022-09-19T06:20:07;10.00;85.60
16521;DHT22;8373;48.110;11.522;2022-09-19T06:22:34;10.10;85.80
16521;DHT22;8373;48.110;11.522;2022-09-19T06:25:01;10.20;85.70
16521;DHT22;8373;48.110;11.522;2022-09-19T06:27:28;10.20;85.20
16521;DHT22;8373;48.110;11.522;2022-09-19T06:29:55;10.00;84.30
16521;DHT22;8373;48.110;11.522;2022-09-19T06:32:25;10.10;84.80
16521;DHT22;8373;48.110;11.522;2022-09-19T06:34:52;10.00;84.60
16521;DHT22;8373;48.110;11.522;2022-09-19T06:37:19;9.90;85.70
16521;DHT22;8373;48.110;11.522;2022-09-19T06:39:46;9.90;86.00
16521;DHT22;8373;48.110;11.522;2022-09-19T06:42:13;10.00;85.70
16521;DHT22;8373;48.110;11.522;2022-09-19T06:44:40;10.10;85.70
16521;DHT22;8373;48.110;11.522;2022-09-19T06:47:07;10.10;85.20
16521;DHT22;8373;48.110;11.522;2022-09-19T06:49:35;10.10;85.10
16521;DHT22;8373;48.110;11.522;2022-09-19T06:52:02;10.10;85.20
16521;DHT22;8373;48.110;11.522;2022-09-19T06:54:29;10.20;85.60
16521;DHT22;8373;48.110;11.522;2022-09-19T06:56:56;10.30;85.60
16521;DHT22;8373;48.110;11.522;2022-09-19T06:59:23;10.30;85.40
16521;DHT22;8373;48.110;11.522;2022-09-19T07:01:50;10.40;85.70
16521;DHT22;8373;48.110;11.522;2022-09-19T07:04:18;10.40;85.20
16521;DHT22;8373;48.110;11.522;2022-09-19T07:06:47;10.50;85.00
16521;DHT22;8373;48.110;11.522;2022-09-19T07:09:14;10.50;84.70
16521;DHT22;8373;48.110;11.522;2022-09-19T07:11:41;10.50;84.80
16521;DHT22;8373;48.110;11.522;2022-09-19T07:14:10;10.50;84.70
16521;DHT22;8373;48.110;11.522;2022-09-19T07:16:37;10.50;84.30
16521;DHT22;8373;48.110;11.522;2022-09-19T07:19:04;10.40;84.40
16521;DHT22;8373;48.110;11.522;2022-09-19T07:21:31;10.40;84.80
16521;DHT22;8373;48.110;11.522;2022-09-19T07:24:00;10.50;85.40
16521;DHT22;8373;48.110;11.522;2022-09-19T07:26:30;10.50;85.00
16521;DHT22;8373;48.110;11.522;2022-09-19T07:28:56;10.60;84.70
16521;DHT22;8373;48.110;11.522;2022-09-19T07:31:23;10.60;84.30
16521;DHT22;8373;48.110;11.522;2022-09-19T07:33:50;10.60;84.50
16521;DHT22;8373;48.110;11.522;2022-09-19T07:36:18;10.70;84.70
16521;DHT22;8373;48.110;11.522;2022-09-19T07:38:47;10.80;84.90
16521;DHT22;8373;48.110;11.522;2022-09-19T07:41:16;10.90;84.80
16521;DHT22;8373;48.110;11.522;2022-09-19T07:43:43;10.90;84.10
16521;DHT22;8373;48.110;11.522;2022-09-19T07:46:10;10.90;83.70
16521;DHT22;8373;48.110;11.522;2022-09-19T07:48:40;11.00;84.10
16521;DHT22;8373;48.110;11.522;2022-09-19T07:51:08;11.00;83.30
16521;DHT22;8373;48.110;11.522;2022-09-19T07:53:35;11.00;82.40
16521;DHT22;8373;48.110;11.522;2022-09-19T07:56:02;11.00;82.70
16521;DHT22;8373;48.110;11.522;2022-09-19T07:58:31;11.20;83.30
16521;DHT22;8373;48.110;11.522;2022-09-19T08:00:59;11.10;83.40
16521;DHT22;8373;48.110;11.522;2022-09-19T08:03:28;11.10;82.70
16521;DHT22;8373;48.110;11.522;2022-09-19T08:05:58;11.00;82.50
16521;DHT22;8373;48.110;11.522;2022-09-19T08:08:26;11.10;83.10
16521;DHT22;8373;48.110;11.522;2022-09-19T08:10:58;11.10;83.00
16521;DHT22;8373;48.110;11.522;2022-09-19T08:13:25;11.20;83.10
16521;DHT22;8373;48.110;11.522;2022-09-19T08:15:54;11.30;82.80
16521;DHT22;8373;48.110;11.522;2022-09-19T08:18:21;11.50;83.10
16521;DHT22;8373;48.110;11.522;2022-09-19T08:20:49;11.50;81.90
16521;DHT22;8373;48.110;11.522;2022-09-19T08:23:18;11.60;82.10
16521;DHT22;8373;48.110;11.522;2022-09-19T08:25:46;11.50;81.10
16521;DHT22;8373;48.110;11.522;2022-09-19T08:28:17;11.40;81.00
16521;DHT22;8373;48.110;11.522;2022-09-19T08:30:45;11.30;81.20
16521;DHT22;8373;48.110;11.522;2022-09-19T08:33:15;11.30;81.40
16521;DHT22;8373;48.110;11.522;2022-09-19T08:35:43;11.50;82.40
16521;DHT22;8373;48.110;11.522;2022-09-19T08:38:12;11.60;82.60
16521;DHT22;8373;48.110;11.522;2022-09-19T08:40:54;11.80;82.50
16521;DHT22;8373;48.110;11.522;2022-09-19T08:43:28;11.90;82.30
16521;DHT22;8373;48.110;11.522;2022-09-19T08:46:10;11.90;81.60
16521;DHT22;8373;48.110;11.522;2022-09-19T08:48:46;11.90;81.40
16521;DHT22;8373;48.110;11.522;2022-09-19T08:51:20;12.00;81.60
16521;DHT22;8373;48.110;11.522;2022-09-19T08:53:52;12.00;80.70
16521;DHT22;8373;48.110;11.522;2022-09-19T08:56:20;12.10;80.40
16521;DHT22;8373;48.110;11.522;2022-09-19T08:58:52;12.20;80.40
16521;DHT22;8373;48.110;11.522;2022-09-19T09:01:21;12.30;80.60
16521;DHT22;8373;48.110;11.522;2022-09-19T09:04:01;12.40;80.20
16521;DHT22;8373;48.110;11.522;2022-09-19T09:06:39;12.60;81.10
16521;DHT22;8373;48.110;11.522;2022-09-19T09:09:13;12.70;79.40
16521;DHT22;8373;48.110;11.522;2022-09-19T09:11:51;12.80;79.50
16521;DHT22;8373;48.110;11.522;2022-09-19T09:14:29;12.90;79.70
16521;DHT22;8373;48.110;11.522;2022-09-19T09:17:05;12.90;79.80
16521;DHT22;8373;48.110;11.522;2022-09-19T09:20:02;12.90;78.80
16521;DHT22;8373;48.110;11.522;2022-09-19T09:22:36;13.00;78.60
16521;DHT22;8373;48.110;11.522;2022-09-19T09:25:11;13.20;79.40
16521;DHT22;8373;48.110;11.522;2022-09-19T09:27:42;13.40;76.60
16521;DHT22;8373;48.110;11.522;2022-09-19T09:30:18;13.60;76.10
16521;DHT22;8373;48.110;11.522;2022-09-19T09:32:49;14.10;76.60
16521;DHT22;8373;48.110;11.522;2022-09-19T09:35:27;14.10;73.20
16521;DHT22;8373;48.110;11.522;2022-09-19T09:38:00;14.30;73.80
16521;DHT22;8373;48.110;11.522;2022-09-19T09:40:41;14.30;71.90
16521;DHT22;8373;48.110;11.522;2022-09-19T09:43:28;14.30;71.70
16521;DHT22;8373;48.110;11.522;2022-09-19T09:45:58;14.30;71.50
16521;DHT22;8373;48.110;11.522;2022-09-19T09:48:30;14.40;71.00
16521;DHT22;8373;48.110;11.522;2022-09-19T09:51:09;14.40;71.60
16521;DHT22;8373;48.110;11.522;2022-09-19T09:56:59;14.40;70.50
16521;DHT22;8373;48.110;11.522;2022-09-19T09:59:32;14.30;69.40
16521;DHT22;8373;48.110;11.522;2022-09-19T10:02:24;14.30;70.30
16521;DHT22;8373;48.110;11.522;2022-09-19T10:05:14;14.30;69.90
16521;DHT22;8373;48.110;11.522;2022-09-19T10:07:52;13.90;69.20
16521;DHT22;8373;48.110;11.522;2022-09-19T10:10:24;13.80;70.30
16521;DHT22;8373;48.110;11.522;2022-09-19T10:12:56;13.80;70.60
16521;DHT22;8373;48.110;11.522;2022-09-19T10:15:25;13.80;70.60
16521;DHT22;8373;48.110;11.522;2022-09-19T10:17:58;13.80;69.90
16521;DHT22;8373;48.110;11.522;2022-09-19T10:20:36;13.90;70.20
16521;DHT22;8373;48.110;11.522;2022-09-19T10:23:11;14.00;70.50
16521;DHT22;8373;48.110;11.522;2022-09-19T10:25:39;14.00;70.10
16521;DHT22;8373;48.110;11.522;2022-09-19T10:28:16;14.10;70.50
16521;DHT22;8373;48.110;11.522;2022-09-19T10:30:53;14.10;70.30
16521;DHT22;8373;48.110;11.522;2022-09-19T10:33:26;14.10;70.50
16521;DHT22;8373;48.110;11.522;2022-09-19T10:35:53;14.10;70.20
16521;DHT22;8373;48.110;11.522;2022-09-19T10:38:25;14.10;70.00
16521;DHT22;8373;48.110;11.522;2022-09-19T10:40:55;14.20;70.40
16521;DHT22;8373;48.110;11.522;2022-09-19T10:43:26;14.40;70.00
16521;DHT22;8373;48.110;11.522;2022-09-19T10:45:57;14.60;69.70
16521;DHT22;8373;48.110;11.522;2022-09-19T10:48:26;14.80;69.20
16521;DHT22;8373;48.110;11.522;2022-09-19T10:50:56;14.90;67.10
16521;DHT22;8373;48.110;11.522;2022-09-19T10:53:28;14.90;67.10
16521;DHT22;8373;48.110;11.522;2022-09-19T10:56:02;15.00;66.80
16521;DHT22;8373;48.110;11.522;2022-09-19T10:58:31;15.00;66.30
16521;DHT22;8373;48.110;11.522;2022-09-19T11:01:04;14.80;65.70
16521;DHT22;8373;48.110;11.522;2022-09-19T11:03:35;14.50;66.40
16521;DHT22;8373;48.110;11.522;2022-09-19T11:06:07;14.40;67.40
16521;DHT22;8373;48.110;11.522;2022-09-19T11:08:42;14.40;68.00
16521;DHT22;8373;48.110;11.522;2022-09-19T11:11:21;14.60;69.00
16521;DHT22;8373;48.110;11.522;2022-09-19T11:17:07;14.60;67.50
16521;DHT22;8373;48.110;11.522;2022-09-19T11:19:51;14.60;67.20
16521;DHT22;8373;48.110;11.522;2022-09-19T11:22:33;14.70;67.30
16521;DHT22;8373;48.110;11.522;2022-09-19T11:25:11;14.80;67.40
16521;DHT22;8373;48.110;11.522;2022-09-19T11:27:51;15.10;67.60
16521;DHT22;8373;48.110;11.522;2022-09-19T11:30:22;15.40;66.80
16521;DHT22;8373;48.110;11.522;2022-09-19T11:33:23;15.50;66.30
16521;DHT22;8373;48.110;11.522;2022-09-19T11:36:06;15.40;65.50
16521;DHT22;8373;48.110;11.522;2022-09-19T11:38:42;15.40;64.70
16521;DHT22;8373;48.110;11.522;2022-09-19T11:41:24;15.40;64.20
16521;DHT22;8373;48.110;11.522;2022-09-19T11:44:07;15.40;64.10
16521;DHT22;8373;48.110;11.522;2022-09-19T11:46:44;15.20;64.30
16521;DHT22;8373;48.110;11.522;2022-09-19T11:52:07;14.90;64.20
16521;DHT22;8373;48.110;11.522;2022-09-19T11:54:58;14.80;64.40
16521;DHT22;8373;48.110;11.522;2022-09-19T11:57:37;14.70;64.20
16521;DHT22;8373;48.110;11.522;2022-09-19T12:00:18;14.60;65.20
16521;DHT22;8373;48.110;11.522;2022-09-19T12:03:13;14.70;65.90
16521;DHT22;8373;48.110;11.522;2022-09-19T12:06:01;15.00;66.40
16521;DHT22;8373;48.110;11.522;2022-09-19T12:08:39;15.40;65.80
16521;DHT22;8373;48.110;11.522;2022-09-19T12:11:12;15.50;64.10
16521;DHT22;8373;48.110;11.522;2022-09-19T12:13:45;15.40;63.40
16521;DHT22;8373;48.110;11.522;2022-09-19T12:16:19;15.30;62.90
16521;DHT22;8373;48.110;11.522;2022-09-19T12:18:53;15.30;63.10
16521;DHT22;8373;48.110;11.522;2022-09-19T12:21:23;15.30;62.10
16521;DHT22;8373;48.110;11.522;2022-09-19T12:23:55;15.20;62.50
16521;DHT22;8373;48.110;11.522;2022-09-19T12:26:46;15.00;62.30
16521;DHT22;8373;48.110;11.522;2022-09-19T12:29:21;15.40;64.10
16521;DHT22;8373;48.110;11.522;2022-09-19T12:31:51;16.80;63.20
16521;DHT22;8373;48.110;11.522;2022-09-19T12:34:28;17.10;59.50
16521;DHT22;8373;48.110;11.522;2022-09-19T12:37:10;17.30;59.00
16521;DHT22;8373;48.110;11.522;2022-09-19T12:39:44;17.30;57.80
16521;DHT22;8373;48.110;11.522;2022-09-19T12:42:19;17.00;56.60
16521;DHT22;8373;48.110;11.522;2022-09-19T12:44:59;16.70;56.80
16521;DHT22;8373;48.110;11.522;2022-09-19T12:47:39;16.30;57.30
16521;DHT22;8373;48.110;11.522;2022-09-19T12:50:19;16.00;57.40
16521;DHT22;8373;48.110;11.522;2022-09-19T12:52:56;15.90;57.70
16521;DHT22;8373;48.110;11.522;2022-09-19T12:55:27;15.70;58.10
16521;DHT22;8373;48.110;11.522;2022-09-19T12:57:57;15.60;58.50
16521;DHT22;8373;48.110;11.522;2022-09-19T13:00:29;15.50;59.30
16521;DHT22;8373;48.110;11.522;2022-09-19T13:03:04;15.40;59.60
16521;DHT22;8373;48.110;11.522;2022-09-19T13:05:35;15.30;60.50
16521;DHT22;8373;48.110;11.522;2022-09-19T13:08:05;15.30;61.30
16521;DHT22;8373;48.110;11.522;2022-09-19T13:10:37;15.40;62.90
16521;DHT22;8373;48.110;11.522;2022-09-19T13:13:11;15.50;62.60
16521;DHT22;8373;48.110;11.522;2022-09-19T13:15:45;15.50;62.70
16521;DHT22;8373;48.110;11.522;2022-09-19T13:18:15;15.60;62.50
16521;DHT22;8373;48.110;11.522;2022-09-19T13:20:59;15.50;61.60
16521;DHT22;8373;48.110;11.522;2022-09-19T13:23:50;15.30;62.20
16521;DHT22;8373;48.110;11.522;2022-09-19T13:26:22;15.20;62.80
16521;DHT22;8373;48.110;11.522;2022-09-19T13:28:58;15.10;62.30
16521;DHT22;8373;48.110;11.522;2022-09-19T13:31:32;15.20;63.00
16521;DHT22;8373;48.110;11.522;2022-09-19T13:34:34;15.10;62.70
16521;DHT22;8373;48.110;11.522;2022-09-19T13:40:17;15.10;63.40
16521;DHT22;8373;48.110;11.522;2022-09-19T13:42:50;15.10;63.60
16521;DHT22;8373;48.110;11.522;2022-09-19T13:45:27;15.10;63.30
16521;DHT22;8373;48.110;11.522;2022-09-19T13:48:04;15.10;62.80
16521;DHT22;8373;48.110;11.522;2022-09-19T13:50:38;15.10;62.70
16521;DHT22;8373;48.110;11.522;2022-09-19T13:53:22;15.10;62.30
16521;DHT22;8373;48.110;11.522;2022-09-19T13:56:00;15.10;61.70
16521;DHT22;8373;48.110;11.522;2022-09-19T13:58:29;15.20;61.70
16521;DHT22;8373;48.110;11.522;2022-09-19T14:01:18;15.20;62.20
16521;DHT22;8373;48.110;11.522;2022-09-19T14:03:53;15.20;62.10
16521;DHT22;8373;48.110;11.522;2022-09-19T14:06:25;15.20;62.40
16521;DHT22;8373;48.110;11.522;2022-09-19T14:09:13;15.10;62.30
16521;DHT22;8373;48.110;11.522;2022-09-19T14:11:40;15.20;62.60
16521;DHT22;8373;48.110;11.522;2022-09-19T14:17:24;15.60;62.30
16521;DHT22;8373;48.110;11.522;2022-09-19T14:19:57;15.70;61.40
16521;DHT22;8373;48.110;11.522;2022-09-19T14:22:43;15.80;60.50
16521;DHT22;8373;48.110;11.522;2022-09-19T14:25:21;15.80;59.60
16521;DHT22;8373;48.110;11.522;2022-09-19T14:28:26;15.80;59.60
16521;DHT22;8373;48.110;11.522;2022-09-19T14:31:08;16.00;59.60
16521;DHT22;8373;48.110;11.522;2022-09-19T14:40:21;16.20;59.00
16521;DHT22;8373;48.110;11.522;2022-09-19T14:43:05;16.20;58.80
16521;DHT22;8373;48.110;11.522;2022-09-19T14:45:52;16.20;59.20
16521;DHT22;8373;48.110;11.522;2022-09-19T14:48:31;16.20;59.20
16521;DHT22;8373;48.110;11.522;2022-09-19T14:51:24;16.40;59.20
16521;DHT22;8373;48.110;11.522;2022-09-19T14:54:01;16.50;59.10
16521;DHT22;8373;48.110;11.522;2022-09-19T14:56:32;16.60;57.30
16521;DHT22;8373;48.110;11.522;2022-09-19T14:58:59;16.60;56.60
16521;DHT22;8373;48.110;11.522;2022-09-19T15:01:28;16.60;56.80
16521;DHT22;8373;48.110;11.522;2022-09-19T15:04:00;16.70;56.20
16521;DHT22;8373;48.110;11.522;2022-09-19T15:06:30;16.70;56.20
16521;DHT22;8373;48.110;11.522;2022-09-19T15:08:58;16.60;55.90
16521;DHT22;8373;48.110;11.522;2022-09-19T15:11:26;16.60;56.30
16521;DHT22;8373;48.110;11.522;2022-09-19T15:13:56;16.60;56.40
16521;DHT22;8373;48.110;11.522;2022-09-19T15:16:24;16.50;56.40
16521;DHT22;8373;48.110;11.522;2022-09-19T15:18:54;16.40;56.50
16521;DHT22;8373;48.110;11.522;2022-09-19T15:21:24;16.30;57.30
16521;DHT22;8373;48.110;11.522;2022-09-19T15:23:56;16.20;57.40
16521;DHT22;8373;48.110;11.522;2022-09-19T15:26:27;16.20;57.80
16521;DHT22;8373;48.110;11.522;2022-09-19T15:28:59;16.00;57.50
16521;DHT22;8373;48.110;11.522;2022-09-19T15:31:28;15.80;57.90
16521;DHT22;8373;48.110;11.522;2022-09-19T15:34:00;15.70;58.60
16521;DHT22;8373;48.110;11.522;2022-09-19T15:36:31;15.70;58.90
16521;DHT22;8373;48.110;11.522;2022-09-19T15:39:02;15.70;58.60
16521;DHT22;8373;48.110;11.522;2022-09-19T15:41:30;15.60;58.50
16521;DHT22;8373;48.110;11.522;2022-09-19T15:43:59;15.60;58.90
16521;DHT22;8373;48.110;11.522;2022-09-19T15:46:45;15.50;59.40
16521;DHT22;8373;48.110;11.522;2022-09-19T15:49:26;15.50;59.80
16521;DHT22;8373;48.110;11.522;2022-09-19T15:51:57;15.50;59.90
16521;DHT22;8373;48.110;11.522;2022-09-19T15:54:25;15.40;60.30
16521;DHT22;8373;48.110;11.522;2022-09-19T15:56:55;15.50;60.90
16521;DHT22;8373;48.110;11.522;2022-09-19T15:59:28;15.50;61.30
16521;DHT22;8373;48.110;11.522;2022-09-19T16:02:00;15.40;61.60
16521;DHT22;8373;48.110;11.522;2022-09-19T16:04:33;15.40;61.80
16521;DHT22;8373;48.110;11.522;2022-09-19T16:07:00;15.50;62.50
16521;DHT22;8373;48.110;11.522;2022-09-19T16:09:46;15.40;62.20
16521;DHT22;8373;48.110;11.522;2022-09-19T16:12:32;15.50;62.30
16521;DHT22;8373;48.110;11.522;2022-09-19T16:15:02;15.60;62.40
16521;DHT22;8373;48.110;11.522;2022-09-19T16:18:06;15.70;61.00
16521;DHT22;8373;48.110;11.522;2022-09-19T16:20:37;15.70;59.70
16521;DHT22;8373;48.110;11.522;2022-09-19T16:23:12;15.60;59.40
16521;DHT22;8373;48.110;11.522;2022-09-19T16:25:43;15.50;59.50
16521;DHT22;8373;48.110;11.522;2022-09-19T16:28:12;15.50;59.70
16521;DHT22;8373;48.110;11.522;2022-09-19T16:30:53;15.50;59.60
16521;DHT22;8373;48.110;11.522;2022-09-19T16:33:20;15.40;58.90
16521;DHT22;8373;48.110;11.522;2022-09-19T16:35:50;15.30;58.80
16521;DHT22;8373;48.110;11.522;2022-09-19T16:38:25;15.30;59.00
16521;DHT22;8373;48.110;11.522;2022-09-19T16:40:54;15.20;59.20
16521;DHT22;8373;48.110;11.522;2022-09-19T16:43:37;15.10;59.20
16521;DHT22;8373;48.110;11.522;2022-09-19T16:46:10;15.10;59.40
16521;DHT22;8373;48.110;11.522;2022-09-19T16:48:38;15.10;59.50
16521;DHT22;8373;48.110;11.522;2022-09-19T16:51:10;15.00;59.30
16521;DHT22;8373;48.110;11.522;2022-09-19T16:53:38;14.90;59.90
16521;DHT22;8373;48.110;11.522;2022-09-19T16:56:05;14.80;60.00
16521;DHT22;8373;48.110;11.522;2022-09-19T16:58:32;14.80;60.50
16521;DHT22;8373;48.110;11.522;2022-09-19T17:01:02;14.80;60.90
16521;DHT22;8373;48.110;11.522;2022-09-19T17:03:31;14.80;61.30
16521;DHT22;8373;48.110;11.522;2022-09-19T17:05:58;14.70;61.40
16521;DHT22;8373;48.110;11.522;2022-09-19T17:08:26;14.70;61.90
16521;DHT22;8373;48.110;11.522;2022-09-19T17:10:53;14.60;62.30
16521;DHT22;8373;48.110;11.522;2022-09-19T17:13:20;14.50;62.70
16521;DHT22;8373;48.110;11.522;2022-09-19T17:15:51;14.30;63.30
16521;DHT22;8373;48.110;11.522;2022-09-19T17:18:22;14.30;64.00
16521;DHT22;8373;48.110;11.522;2022-09-19T17:20:52;14.30;64.50
16521;DHT22;8373;48.110;11.522;2022-09-19T17:23:20;14.30;64.80
16521;DHT22;8373;48.110;11.522;2022-09-19T17:25:48;14.20;64.70
16521;DHT22;8373;48.110;11.522;2022-09-19T17:28:17;14.10;64.90
16521;DHT22;8373;48.110;11.522;2022-09-19T17:30:45;14.10;65.20
16521;DHT22;8373;48.110;11.522;2022-09-19T17:33:16;14.10;65.20
16521;DHT22;8373;48.110;11.522;2022-09-19T17:35:44;14.00;65.40
16521;DHT22;8373;48.110;11.522;2022-09-19T17:38:13;14.00;66.00
16521;DHT22;8373;48.110;11.522;2022-09-19T17:40:41;14.10;66.00
16521;DHT22;8373;48.110;11.522;2022-09-19T17:43:12;14.10;65.90
16521;DHT22;8373;48.110;11.522;2022-09-19T17:45:40;14.00;65.70
16521;DHT22;8373;48.110;11.522;2022-09-19T17:48:09;14.00;65.90
16521;DHT22;8373;48.110;11.522;2022-09-19T17:50:37;13.90;65.70
16521;DHT22;8373;48.110;11.522;2022-09-19T17:53:05;13.80;65.90
16521;DHT22;8373;48.110;11.522;2022-09-19T17:55:34;13.80;66.10
16521;DHT22;8373;48.110;11.522;2022-09-19T17:58:02;13.70;66.30
16521;DHT22;8373;48.110;11.522;2022-09-19T18:00:30;13.70;66.50
16521;DHT22;8373;48.110;11.522;2022-09-19T18:02:57;13.70;66.60
16521;DHT22;8373;48.110;11.522;2022-09-19T18:05:41;13.80;66.80
16521;DHT22;8373;48.110;11.522;2022-09-19T18:08:08;13.80;67.20
16521;DHT22;8373;48.110;11.522;2022-09-19T18:10:37;13.80;66.90
16521;DHT22;8373;48.110;11.522;2022-09-19T18:13:04;13.90;67.10
16521;DHT22;8373;48.110;11.522;2022-09-19T18:15:33;13.80;66.70
16521;DHT22;8373;48.110;11.522;2022-09-19T18:18:02;13.90;67.20
16521;DHT22;8373;48.110;11.522;2022-09-19T18:20:31;13.90;67.10
16521;DHT22;8373;48.110;11.522;2022-09-19T18:22:58;13.80;67.30
16521;DHT22;8373;48.110;11.522;2022-09-19T18:25:25;13.80;67.30
16521;DHT22;8373;48.110;11.522;2022-09-19T18:27:54;13.80;67.20
16521;DHT22;8373;48.110;11.522;2022-09-19T18:30:21;13.80;67.60
16521;DHT22;8373;48.110;11.522;2022-09-19T18:32:48;13.70;67.10
16521;DHT22;8373;48.110;11.522;2022-09-19T18:35:17;13.60;67.30
16521;DHT22;8373;48.110;11.522;2022-09-19T18:37:45;13.50;67.60
16521;DHT22;8373;48.110;11.522;2022-09-19T18:40:13;13.40;68.00
16521;DHT22;8373;48.110;11.522;2022-09-19T18:42:41;13.40;68.30
16521;DHT22;8373;48.110;11.522;2022-09-19T18:45:10;13.40;68.30
16521;DHT22;8373;48.110;11.522;2022-09-19T18:47:37;13.30;68.30
16521;DHT22;8373;48.110;11.522;2022-09-19T18:50:06;13.40;68.80
16521;DHT22;8373;48.110;11.522;2022-09-19T18:52:33;13.40;69.00
16521;DHT22;8373;48.110;11.522;2022-09-19T18:55:00;13.50;69.10
16521;DHT22;8373;48.110;11.522;2022-09-19T18:57:27;13.50;68.90
16521;DHT22;8373;48.110;11.522;2022-09-19T18:59:54;13.50;68.80
16521;DHT22;8373;48.110;11.522;2022-09-19T19:02:23;13.50;69.00
16521;DHT22;8373;48.110;11.522;2022-09-19T19:04:50;13.40;68.70
16521;DHT22;8373;48.110;11.522;2022-09-19T19:07:17;13.40;68.90
16521;DHT22;8373;48.110;11.522;2022-09-19T19:09:44;13.40;69.00
16521;DHT22;8373;48.110;11.522;2022-09-19T19:12:11;13.40;69.00
16521;DHT22;8373;48.110;11.522;2022-09-19T19:14:38;13.40;68.90
16521;DHT22;8373;48.110;11.522;2022-09-19T19:17:07;13.40;69.20
16521;DHT22;8373;48.110;11.522;2022-09-19T19:19:35;13.30;69.00
16521;DHT22;8373;48.110;11.522;2022-09-19T19:22:02;13.30;69.20
16521;DHT22;8373;48.110;11.522;2022-09-19T19:24:29;13.10;69.30
16521;DHT22;8373;48.110;11.522;2022-09-19T19:26:56;13.10;69.50
16521;DHT22;8373;48.110;11.522;2022-09-19T19:29:23;13.10;69.80
16521;DHT22;8373;48.110;11.522;2022-09-19T19:31:51;13.10;70.10
16521;DHT22;8373;48.110;11.522;2022-09-19T19:34:19;13.00;70.00
16521;DHT22;8373;48.110;11.522;2022-09-19T19:36:48;13.00;70.00
16521;DHT22;8373;48.110;11.522;2022-09-19T19:39:14;13.00;70.50
16521;DHT22;8373;48.110;11.522;2022-09-19T19:41:42;12.90;70.50
16521;DHT22;8373;48.110;11.522;2022-09-19T19:44:09;13.00;71.10
16521;DHT22;8373;48.110;11.522;2022-09-19T19:46:37;13.00;71.20
16521;DHT22;8373;48.110;11.522;2022-09-19T19:49:05;13.00;71.20
16521;DHT22;8373;48.110;11.522;2022-09-19T19:51:34;13.00;71.40
16521;DHT22;8373;48.110;11.522;2022-09-19T19:54:04;13.00;71.60
16521;DHT22;8373;48.110;11.522;2022-09-19T19:56:32;13.10;71.90
16521;DHT22;8373;48.110;11.522;2022-09-19T19:59:00;13.10;71.80
16521;DHT22;8373;48.110;11.522;2022-09-19T20:01:29;13.20;72.00
16521;DHT22;8373;48.110;11.522;2022-09-19T20:03:58;13.20;71.80
16521;DHT22;8373;48.110;11.522;2022-09-19T20:06:27;13.20;72.00
16521;DHT22;8373;48.110;11.522;2022-09-19T20:08:55;13.20;71.90
16521;DHT22;8373;48.110;11.522;2022-09-19T20:11:24;13.10;71.90
16521;DHT22;8373;48.110;11.522;2022-09-19T20:13:52;13.10;72.10
16521;DHT22;8373;48.110;11.522;2022-09-19T20:16:21;13.10;72.30
16521;DHT22;8373;48.110;11.522;2022-09-19T20:18:49;13.10;72.50
16521;DHT22;8373;48.110;11.522;2022-09-19T20:21:19;13.10;73.30
16521;DHT22;8373;48.110;11.522;2022-09-19T20:23:47;13.20;72.60
16521;DHT22;8373;48.110;11.522;2022-09-19T20:26:16;13.10;72.20